KFHU/FHU METAR and TAF weather

Enter ICAO airport designator
Station Type Date Time Source
KFHU METAR 2022/06/25 23:19 UTC NOAA

KFHU 252319Z AUTO 24006KT 10SM SCT100 BKN130 28/09 A3011 RMK AO2 SLP123


Station Type Date Time Source
KFHU Decoded METAR 2022/06/25 23:19 UTC NOAA

Fort Huachuca, Libby AAF Ft Huachuca, AZ, United States (KFHU) 46-98N 110-20W
Jun 25, 2022 - 07:19 PM EDT / 2022.06.25 2319 UTC
Wind: from the WSW (240 degrees) at 7 MPH (6 KT):0
Visibility: 10 mile(s):0
Sky conditions: mostly cloudy
Temperature: 82 F (28 C)
Dew Point: 48 F (9 C)
Relative Humidity: 30%
Pressure (altimeter): 30.11 in. Hg (1019 hPa)
ob: KFHU 252319Z AUTO 24006KT 10SM SCT100 BKN130 28/09 A3011 RMK AO2 SLP123
cycle: 23

Station Type Date Time Source
KFHU TAF 2022/06/25 02:09 UTC NOAA

TAF
AMD KFHU 250205Z 2502/2604 08011G17KT 9999 VCTS SCT080CB BKN130 OVC280 621303 QNH3004INS
TEMPO 2503/2506 VRB15G25KT 9000 -TSRA OVC080CB
BECMG 2505/2506 34009KT 9999 VCSH SCT080 BKN140 621403 QNH3009INS
BECMG 2508/2509 23007KT 9999 NSW FEW080 SCT140 QNH3006INS
BECMG 2521/2522 13009KT 9999 VCTS SCT080CB BKN170 QNH3012INS
TEMPO 2522/2602 VRB15G25KT 8000 -TSRA BKN080CB
BECMG 2602/2603 12012KT 9000 -SHRA BKN080 OVC120 621206 QNH3016INS TX29/2521Z TN21/2513Z LAST NO
AMDS AFT 2506 NEXT 2706

Example: see airport list